Time;durP1;ratioP1;P1;durP2;ratioP2;P2;SDS_P1;SDS_P2;PMS_P1;PMS_P2;Temp;Humidity;BMP_temperature;BMP_pressure;BME280_temperature;BME280_humidity;BME280_pressure;Samples;Min_cycle;Max_cycle;Signal;HPM_P1;HPM_P2
2021/05/30 00:01:21;;;;;;;11.00;6.93;;;22.20;45.40;;;;;;6178479;28;83453;-65
2021/05/30 00:04:21;;;;;;;10.93;6.30;;;22.20;45.30;;;;;;6190689;28;80911;-65
2021/05/30 00:07:22;;;;;;;12.10;7.03;;;22.10;45.40;;;;;;6178142;28;81548;-65
2021/05/30 00:10:23;;;;;;;11.77;6.63;;;22.20;45.60;;;;;;6183943;28;80986;-64
2021/05/30 00:13:23;;;;;;;10.38;6.38;;;22.20;45.50;;;;;;6182576;28;82453;-65
2021/05/30 00:16:24;;;;;;;11.25;7.05;;;22.20;45.20;;;;;;6182793;28;80882;-66
2021/05/30 00:19:25;;;;;;;10.20;6.32;;;22.20;45.30;;;;;;6184196;28;80573;-66
2021/05/30 00:22:25;;;;;;;11.65;6.68;;;22.10;45.30;;;;;;6183620;28;81474;-66
2021/05/30 00:25:26;;;;;;;13.75;6.95;;;22.20;45.60;;;;;;6172599;28;80902;-66
2021/05/30 00:28:26;;;;;;;10.95;7.15;;;22.20;45.30;;;;;;6167816;28;81785;-65
2021/05/30 00:31:27;;;;;;;11.52;6.75;;;22.10;45.60;;;;;;6166921;28;80752;-65
2021/05/30 00:34:27;;;;;;;10.93;6.45;;;22.10;45.60;;;;;;6170496;28;82830;-66
2021/05/30 00:37:28;;;;;;;13.85;7.13;;;22.20;45.30;;;;;;6184943;28;84483;-66
2021/05/30 00:40:28;;;;;;;11.75;7.00;;;22.20;45.40;;;;;;6158368;28;80936;-65
2021/05/30 00:43:29;;;;;;;12.70;7.05;;;22.20;45.40;;;;;;6164646;28;80801;-65
2021/05/30 00:46:30;;;;;;;11.55;6.63;;;22.20;45.40;;;;;;6171715;28;80257;-64
2021/05/30 00:49:30;;;;;;;11.85;6.95;;;22.10;45.60;;;;;;6170080;28;80571;-65
2021/05/30 00:52:31;;;;;;;11.55;7.28;;;22.20;45.60;;;;;;6182963;28;83520;-64
2021/05/30 00:55:31;;;;;;;14.98;6.68;;;22.20;45.50;;;;;;6182717;28;80417;-64
2021/05/30 00:58:32;;;;;;;11.52;6.72;;;22.10;45.40;;;;;;6183347;28;80613;-65
2021/05/30 01:01:32;;;;;;;11.93;6.88;;;22.10;45.40;;;;;;6165147;28;82478;-65
2021/05/30 01:04:34;;;;;;;12.55;7.20;;;22.10;45.30;;;;;;6169920;28;80947;-65
2021/05/30 01:07:40;;;;;;;12.40;6.88;;;22.10;45.70;;;;;;6183127;28;80632;-65
2021/05/30 01:10:41;;;;;;;11.77;7.05;;;22.10;45.40;;;;;;6181784;28;80574;-65
2021/05/30 01:13:41;;;;;;;10.50;6.78;;;22.10;45.40;;;;;;6183268;28;82271;-65
2021/05/30 01:16:42;;;;;;;13.18;6.78;;;22.10;45.60;;;;;;6189575;28;81605;-65
2021/05/30 01:19:42;;;;;;;12.55;6.90;;;22.10;45.60;;;;;;6170388;28;80627;-65
2021/05/30 01:22:43;;;;;;;12.90;7.25;;;22.10;45.40;;;;;;6182796;28;81446;-65
2021/05/30 01:25:44;;;;;;;11.35;6.72;;;22.10;45.40;;;;;;6181902;28;80720;-65
2021/05/30 01:28:44;;;;;;;13.63;7.20;;;22.10;45.60;;;;;;6177743;28;80791;-65
2021/05/30 01:31:45;;;;;;;10.35;6.40;;;22.10;45.30;;;;;;6167318;28;80537;-65
2021/05/30 01:34:45;;;;;;;10.75;6.55;;;22.10;45.70;;;;;;6157979;28;80848;-64
2021/05/30 01:37:48;;;;;;;10.27;6.38;;;22.10;45.40;;;;;;6171827;28;80587;-64
2021/05/30 01:40:48;;;;;;;10.82;6.68;;;22.10;45.40;;;;;;6182551;28;81125;-65
2021/05/30 01:43:49;;;;;;;10.48;6.15;;;22.10;45.60;;;;;;6167565;28;80773;-64
2021/05/30 01:46:49;;;;;;;10.75;7.03;;;22.10;45.50;;;;;;6170949;28;80702;-66
2021/05/30 01:49:50;;;;;;;11.93;6.72;;;22.10;45.50;;;;;;6161535;28;80375;-65
2021/05/30 01:52:51;;;;;;;12.90;7.03;;;22.10;45.50;;;;;;6171486;28;80580;-67
2021/05/30 01:58:58;;;;;;;11.52;6.82;;;22.10;45.80;;;;;;6181205;28;83916;-65
2021/05/30 02:01:58;;;;;;;10.55;6.65;;;22.10;45.60;;;;;;6181625;28;81280;-66
2021/05/30 02:04:59;;;;;;;11.65;7.00;;;22.10;45.80;;;;;;6181503;28;80707;-65
2021/05/30 02:07:59;;;;;;;12.05;6.20;;;22.00;45.70;;;;;;6165857;28;80477;-65
2021/05/30 02:11:00;;;;;;;11.52;6.68;;;22.10;45.70;;;;;;6164263;28;80724;-66
2021/05/30 02:14:00;;;;;;;10.60;6.63;;;22.10;45.50;;;;;;6176951;28;80377;-66
2021/05/30 02:17:01;;;;;;;11.63;6.80;;;22.10;45.50;;;;;;6173403;28;80845;-66
2021/05/30 02:20:01;;;;;;;12.50;6.95;;;22.10;45.30;;;;;;6171946;28;81897;-66
2021/05/30 02:23:02;;;;;;;10.52;6.30;;;22.10;45.30;;;;;;6180434;28;80601;-66
2021/05/30 02:26:02;;;;;;;10.60;6.75;;;22.00;45.30;;;;;;6181774;28;80491;-65
2021/05/30 02:29:03;;;;;;;10.88;6.25;;;22.00;45.30;;;;;;6148957;28;80933;-65
2021/05/30 02:32:03;;;;;;;10.40;6.68;;;22.10;45.50;;;;;;6178935;28;80582;-66
2021/05/30 02:35:04;;;;;;;10.43;6.15;;;22.10;45.40;;;;;;6181081;28;80511;-66
2021/05/30 02:38:04;;;;;;;11.75;6.20;;;22.10;45.70;;;;;;6164917;28;80928;-66
2021/05/30 02:41:05;;;;;;;10.20;6.07;;;22.00;45.40;;;;;;6157059;28;80398;-66
2021/05/30 02:44:05;;;;;;;9.80;6.63;;;22.00;45.50;;;;;;6171432;28;81741;-65
2021/05/30 02:47:06;;;;;;;13.00;6.97;;;22.00;45.70;;;;;;6163472;28;83271;-65
2021/05/30 02:50:06;;;;;;;11.32;6.68;;;22.10;45.50;;;;;;6156396;28;80436;-65
2021/05/30 02:53:07;;;;;;;10.30;6.10;;;22.10;45.40;;;;;;6155832;28;80529;-65
2021/05/30 02:56:07;;;;;;;11.32;6.82;;;22.00;45.50;;;;;;6156173;28;80598;-65
2021/05/30 02:59:08;;;;;;;12.38;6.63;;;22.00;45.40;;;;;;6156301;28;80879;-65
2021/05/30 03:02:08;;;;;;;8.60;6.22;;;22.00;45.30;;;;;;6156692;28;80227;-66
2021/05/30 03:05:09;;;;;;;11.02;6.80;;;22.00;45.20;;;;;;6172122;28;80239;-65
2021/05/30 03:08:09;;;;;;;10.30;6.95;;;22.00;45.90;;;;;;6159991;28;80635;-66
2021/05/30 03:11:10;;;;;;;10.35;6.53;;;22.00;45.60;;;;;;6171343;28;80464;-65
2021/05/30 03:14:10;;;;;;;12.80;6.70;;;22.00;45.60;;;;;;6180053;28;80410;-65
2021/05/30 03:17:11;;;;;;;10.60;6.20;;;22.00;45.60;;;;;;6179634;28;81430;-65
2021/05/30 03:20:11;;;;;;;11.90;7.00;;;22.00;45.50;;;;;;6163035;28;81713;-66
2021/05/30 03:23:12;;;;;;;10.55;6.60;;;22.00;45.90;;;;;;6154039;28;82260;-65
2021/05/30 03:26:12;;;;;;;8.90;5.90;;;22.00;45.70;;;;;;6172652;28;80518;-66
2021/05/30 03:29:13;;;;;;;9.30;5.97;;;22.00;46.30;;;;;;6157337;28;80654;-66
2021/05/30 03:32:13;;;;;;;11.55;6.38;;;22.00;45.60;;;;;;6150039;28;80643;-66
2021/05/30 03:35:14;;;;;;;8.85;6.07;;;22.00;45.50;;;;;;6174036;28;80369;-66
2021/05/30 03:38:16;;;;;;;10.15;6.00;;;22.00;45.50;;;;;;6177546;28;80574;-66
2021/05/30 03:41:19;;;;;;;9.38;5.93;;;22.00;45.50;;;;;;6180089;28;81065;-66
2021/05/30 03:44:20;;;;;;;12.07;6.45;;;22.00;45.50;;;;;;6163030;28;81213;-65
2021/05/30 03:47:20;;;;;;;9.88;6.15;;;22.00;45.60;;;;;;6160861;28;80418;-65
2021/05/30 03:50:21;;;;;;;10.85;6.78;;;22.00;45.60;;;;;;6159863;28;80755;-65
2021/05/30 03:53:21;;;;;;;9.68;6.28;;;22.00;45.60;;;;;;6159828;28;80367;-65
2021/05/30 03:56:22;;;;;;;12.48;6.38;;;22.00;45.70;;;;;;6193133;28;80529;-65
2021/05/30 03:59:22;;;;;;;10.65;6.70;;;22.00;45.50;;;;;;6180390;28;80379;-65
2021/05/30 04:02:23;;;;;;;9.25;5.80;;;22.00;45.40;;;;;;6159692;28;81035;-66
2021/05/30 04:05:23;;;;;;;10.77;6.28;;;22.00;45.80;;;;;;6159449;28;81595;-66
2021/05/30 04:08:24;;;;;;;10.85;6.28;;;22.00;45.70;;;;;;6179353;28;81438;-66
2021/05/30 04:11:24;;;;;;;11.50;6.40;;;22.00;46.30;;;;;;6162421;28;81080;-66
2021/05/30 04:14:25;;;;;;;11.32;6.65;;;22.00;45.90;;;;;;6178462;28;82870;-66
2021/05/30 04:17:25;;;;;;;9.93;5.75;;;22.00;45.80;;;;;;6183102;28;80815;-63
2021/05/30 04:20:26;;;;;;;9.35;6.47;;;22.00;45.90;;;;;;6180990;28;80686;-61
2021/05/30 04:23:26;;;;;;;9.50;5.82;;;22.00;45.60;;;;;;6163640;28;80460;-63
2021/05/30 04:26:27;;;;;;;9.45;5.78;;;22.00;45.90;;;;;;6158147;28;81250;-64
2021/05/30 04:29:27;;;;;;;7.13;5.32;;;22.00;45.80;;;;;;6165900;28;80868;-63
2021/05/30 04:32:28;;;;;;;9.05;5.20;;;22.00;46.00;;;;;;6191699;28;80594;-63
2021/05/30 04:35:28;;;;;;;9.82;6.00;;;22.10;45.60;;;;;;6163337;28;81270;-63
2021/05/30 04:38:29;;;;;;;11.50;5.90;;;22.00;46.30;;;;;;6153233;28;81160;-62
2021/05/30 04:41:29;;;;;;;11.00;6.30;;;22.10;46.20;;;;;;6176164;28;80941;-64
2021/05/30 04:44:30;;;;;;;9.27;5.43;;;22.00;45.90;;;;;;6182675;28;80498;-64
2021/05/30 04:47:30;;;;;;;11.32;5.93;;;22.00;45.80;;;;;;6162273;28;80884;-64
2021/05/30 04:50:31;;;;;;;11.38;5.50;;;22.10;47.00;;;;;;6178929;28;80486;-64
2021/05/30 04:53:31;;;;;;;10.60;5.38;;;22.10;46.10;;;;;;6181142;28;81053;-64
2021/05/30 04:56:32;;;;;;;14.27;5.57;;;22.10;46.60;;;;;;6181651;28;80686;-61
2021/05/30 04:59:34;;;;;;;7.25;5.38;;;22.00;47.70;;;;;;6162370;28;80365;-64
2021/05/30 05:02:34;;;;;;;8.18;5.30;;;22.00;48.10;;;;;;6178721;28;82863;-64
2021/05/30 05:05:35;;;;;;;8.85;5.25;;;22.10;47.90;;;;;;6176182;28;80630;-64
2021/05/30 05:08:35;;;;;;;13.20;5.50;;;22.10;48.30;;;;;;6182234;28;81124;-64
2021/05/30 05:11:36;;;;;;;8.15;5.45;;;22.10;48.10;;;;;;6180387;28;82247;-65
2021/05/30 05:14:36;;;;;;;11.18;5.65;;;22.20;47.90;;;;;;6159918;28;80806;-64
2021/05/30 05:17:37;;;;;;;12.23;6.75;;;22.20;48.80;;;;;;6178636;28;80515;-64
2021/05/30 05:20:37;;;;;;;13.88;7.22;;;22.20;50.20;;;;;;6182747;28;81787;-65
2021/05/30 05:23:38;;;;;;;12.75;5.85;;;22.20;51.60;;;;;;6161026;28;80739;-64
2021/05/30 05:26:38;;;;;;;8.05;5.63;;;22.20;51.80;;;;;;6166329;28;80932;-64
2021/05/30 05:29:39;;;;;;;9.15;5.70;;;22.20;51.30;;;;;;6160010;28;81307;-64
2021/05/30 05:32:39;;;;;;;11.93;6.13;;;22.20;50.70;;;;;;6152546;28;83406;-64
2021/05/30 05:35:40;;;;;;;13.63;5.50;;;22.20;50.60;;;;;;6179096;28;80348;-64
2021/05/30 05:38:41;;;;;;;11.80;5.70;;;22.20;50.40;;;;;;6176272;28;80361;-64
2021/05/30 05:41:41;;;;;;;13.40;6.25;;;22.20;50.40;;;;;;6183099;28;80615;-65
2021/05/30 05:44:42;;;;;;;8.88;5.82;;;22.30;50.50;;;;;;6160028;28;80634;-63
2021/05/30 05:47:43;;;;;;;7.75;5.47;;;22.20;50.10;;;;;;6159827;28;82065;-63
2021/05/30 05:50:43;;;;;;;7.85;4.78;;;22.20;50.30;;;;;;6179249;28;80339;-62
2021/05/30 05:53:44;;;;;;;9.25;5.68;;;22.20;50.20;;;;;;6180425;28;80864;-62
2021/05/30 05:56:45;;;;;;;8.25;5.43;;;22.20;50.20;;;;;;6181274;28;80917;-62
2021/05/30 05:59:45;;;;;;;10.98;6.18;;;22.20;50.30;;;;;;6158335;28;80299;-63
2021/05/30 06:02:47;;;;;;;8.38;5.72;;;22.20;50.00;;;;;;6156756;28;80357;-65
2021/05/30 06:05:47;;;;;;;7.93;5.28;;;22.30;50.60;;;;;;6179116;28;81303;-62
2021/05/30 06:08:48;;;;;;;8.77;5.82;;;22.20;49.80;;;;;;6178676;28;80593;-61
2021/05/30 06:11:48;;;;;;;10.65;5.30;;;22.30;49.30;;;;;;6178149;28;80670;-63
2021/05/30 06:14:49;;;;;;;8.00;5.65;;;22.30;49.20;;;;;;6159866;28;80635;-62
2021/05/30 06:17:54;;;;;;;12.52;5.40;;;22.30;48.40;;;;;;6179877;28;82964;-61
2021/05/30 06:20:54;;;;;;;8.23;5.57;;;22.20;48.20;;;;;;6181244;28;80514;-61
2021/05/30 06:23:55;;;;;;;14.10;6.90;;;22.20;48.20;;;;;;6169306;28;80429;-62
2021/05/30 06:26:55;;;;;;;15.43;7.82;;;22.30;49.30;;;;;;6176716;28;81577;-61
2021/05/30 06:29:56;;;;;;;16.73;8.27;;;22.20;49.10;;;;;;6148184;28;80640;-63
2021/05/30 06:32:56;;;;;;;20.58;9.27;;;22.20;49.30;;;;;;6174477;28;83163;-64
2021/05/30 06:35:57;;;;;;;15.75;8.18;;;22.30;48.70;;;;;;6155342;28;81897;-63
2021/05/30 06:38:57;;;;;;;15.65;8.40;;;22.30;48.10;;;;;;6149998;28;80583;-63
2021/05/30 06:41:58;;;;;;;16.05;7.75;;;22.20;48.60;;;;;;6171503;28;81912;-63
2021/05/30 06:44:58;;;;;;;12.85;7.90;;;22.20;48.70;;;;;;6178256;28;80748;-63
2021/05/30 06:48:00;;;;;;;15.40;7.88;;;22.20;47.90;;;;;;6180007;28;80480;-60
2021/05/30 06:51:15;;;;;;;14.93;7.70;;;22.20;48.20;;;;;;6177064;28;81322;-63
2021/05/30 06:54:16;;;;;;;19.02;8.02;;;22.20;48.80;;;;;;6176111;28;85584;-64
2021/05/30 06:57:17;;;;;;;38.30;14.85;;;22.30;48.60;;;;;;6158460;28;83176;-65
2021/05/30 07:00:21;;;;;;;240.38;84.38;;;22.30;48.80;;;;;;6171514;28;82998;-64
2021/05/30 07:03:21;;;;;;;284.27;98.80;;;22.30;48.60;;;;;;6144849;28;84196;-64
2021/05/30 07:06:22;;;;;;;311.08;124.10;;;22.30;48.90;;;;;;6154513;28;84085;-63
2021/05/30 07:09:23;;;;;;;299.17;113.38;;;22.20;49.00;;;;;;6164981;28;86181;-65
2021/05/30 07:12:23;;;;;;;265.23;97.47;;;22.20;49.10;;;;;;6161285;28;87941;-66
2021/05/30 07:15:24;;;;;;;219.98;82.28;;;22.20;49.50;;;;;;6149654;28;84223;-65
2021/05/30 07:18:24;;;;;;;187.38;71.85;;;22.20;49.50;;;;;;6169054;28;84075;-65
2021/05/30 07:21:25;;;;;;;148.95;60.22;;;22.30;49.80;;;;;;6170058;28;83566;-65
2021/05/30 07:24:25;;;;;;;151.00;56.92;;;22.20;50.00;;;;;;6172627;28;83000;-65
2021/05/30 07:27:26;;;;;;;135.18;50.83;;;22.30;50.30;;;;;;6169207;28;84483;-65
2021/05/30 07:30:26;;;;;;;126.03;49.05;;;22.20;50.20;;;;;;6148468;28;83085;-64
2021/05/30 07:33:27;;;;;;;126.40;47.50;;;22.20;50.60;;;;;;6143907;28;83395;-66
2021/05/30 07:36:28;;;;;;;118.35;43.15;;;22.30;50.40;;;;;;6147314;28;85206;-65
2021/05/30 07:39:29;;;;;;;114.75;43.90;;;22.30;50.00;;;;;;6153898;28;84039;-65
2021/05/30 07:42:29;;;;;;;112.30;40.63;;;22.30;50.30;;;;;;6164700;28;83400;-64
2021/05/30 07:45:30;;;;;;;94.22;39.10;;;22.30;50.20;;;;;;6160104;28;86039;-65
2021/05/30 07:48:30;;;;;;;93.32;35.97;;;22.30;50.20;;;;;;6153232;28;83050;-64
2021/05/30 07:51:31;;;;;;;84.85;33.42;;;22.30;50.50;;;;;;6169720;28;83544;-64
2021/05/30 07:54:32;;;;;;;87.97;34.30;;;22.30;50.60;;;;;;6170717;28;83378;-63
2021/05/30 07:57:32;;;;;;;79.32;31.90;;;22.30;50.40;;;;;;6168142;28;89835;-64
2021/05/30 08:00:33;;;;;;;80.88;30.58;;;22.30;49.90;;;;;;6147180;28;83128;-65
2021/05/30 08:03:33;;;;;;;68.82;29.23;;;22.40;49.80;;;;;;6151316;28;85185;-67
2021/05/30 08:06:34;;;;;;;63.25;27.30;;;22.40;49.50;;;;;;6148281;28;82813;-64
2021/05/30 08:09:34;;;;;;;64.15;27.25;;;22.40;49.30;;;;;;6173578;28;83677;-66
2021/05/30 08:12:35;;;;;;;70.63;27.60;;;22.40;49.50;;;;;;6176413;28;83478;-65
2021/05/30 08:15:35;;;;;;;67.85;27.67;;;22.40;49.40;;;;;;6176263;28;83951;-65
2021/05/30 08:18:36;;;;;;;63.50;24.80;;;22.30;49.20;;;;;;6175225;28;84136;-67
2021/05/30 08:21:36;;;;;;;59.90;24.15;;;22.30;50.20;;;;;;6176915;28;83522;-64
2021/05/30 08:24:37;;;;;;;63.05;24.02;;;22.30;49.90;;;;;;6149004;28;83084;-65
2021/05/30 08:27:38;;;;;;;59.55;23.65;;;22.30;50.30;;;;;;6171054;28;83744;-65
2021/05/30 08:30:38;;;;;;;56.17;21.27;;;22.30;50.10;;;;;;6177487;28;83736;-66
2021/05/30 08:33:39;;;;;;;48.15;20.65;;;22.40;50.50;;;;;;6179468;28;84172;-67
2021/05/30 08:36:40;;;;;;;47.83;19.13;;;22.30;50.10;;;;;;6169688;28;83225;-65
2021/05/30 08:39:41;;;;;;;46.92;20.05;;;22.40;50.30;;;;;;6139610;28;85381;-65
2021/05/30 08:42:41;;;;;;;62.72;22.90;;;22.30;50.90;;;;;;6177637;28;83005;-66
2021/05/30 08:45:42;;;;;;;58.88;22.63;;;22.40;53.10;;;;;;6178574;28;83332;-65
2021/05/30 08:48:43;;;;;;;57.72;23.42;;;22.40;52.90;;;;;;6172380;28;92856;-65
2021/05/30 08:51:43;;;;;;;66.72;23.27;;;22.40;52.50;;;;;;6160274;28;83603;-64
2021/05/30 08:54:44;;;;;;;63.95;22.85;;;22.30;52.50;;;;;;6175540;28;82892;-64
2021/05/30 08:57:44;;;;;;;74.75;24.95;;;22.40;52.40;;;;;;6178384;28;84299;-63
2021/05/30 09:00:45;;;;;;;72.28;24.70;;;22.40;52.30;;;;;;6164544;28;83478;-64
2021/05/30 09:03:45;;;;;;;62.22;21.42;;;22.40;52.30;;;;;;6152835;28;84247;-64
2021/05/30 09:06:46;;;;;;;65.45;20.20;;;22.40;52.20;;;;;;6151087;28;84260;-66
2021/05/30 09:09:46;;;;;;;60.17;21.90;;;22.30;52.50;;;;;;6148818;28;84067;-65
2021/05/30 09:12:47;;;;;;;54.22;19.63;;;22.20;53.30;;;;;;6151994;28;85402;-66
2021/05/30 09:18:51;;;;;;;52.30;16.80;;;22.30;54.00;;;;;;6161872;28;82817;-64
2021/05/30 09:21:51;;;;;;;42.90;16.95;;;22.30;54.20;;;;;;6151062;28;83413;-66
2021/05/30 09:24:52;;;;;;;46.10;16.60;;;22.30;53.90;;;;;;6176319;28;82957;-66
2021/05/30 09:27:53;;;;;;;42.65;14.82;;;22.30;53.70;;;;;;6174335;28;82964;-65
2021/05/30 09:30:54;;;;;;;38.25;15.25;;;22.40;54.20;;;;;;6166331;28;83388;-64
2021/05/30 09:33:54;;;;;;;36.15;12.95;;;22.30;53.90;;;;;;6157791;28;83640;-64
2021/05/30 09:36:55;;;;;;;40.53;14.90;;;22.30;54.60;;;;;;6176394;28;84050;-64
2021/05/30 09:39:55;;;;;;;36.72;13.70;;;22.30;54.40;;;;;;6174825;28;84278;-64
2021/05/30 09:42:56;;;;;;;38.90;13.48;;;22.30;55.70;;;;;;6175869;28;83917;-64
2021/05/30 09:45:56;;;;;;;37.22;13.68;;;22.30;55.80;;;;;;6176887;28;83066;-64
2021/05/30 09:48:57;;;;;;;42.50;14.38;;;22.40;57.80;;;;;;6178082;28;83530;-64
2021/05/30 09:51:57;;;;;;;32.53;14.23;;;22.40;56.60;;;;;;6175898;28;83980;-64
2021/05/30 09:54:58;;;;;;;30.17;13.73;;;22.50;56.90;;;;;;6178147;28;83449;-64
2021/05/30 09:57:58;;;;;;;29.23;12.68;;;22.50;56.30;;;;;;6191233;28;83590;-65
2021/05/30 10:00:59;;;;;;;31.73;13.63;;;22.50;56.10;;;;;;6166453;28;83082;-64
2021/05/30 10:03:59;;;;;;;28.60;12.25;;;22.50;56.20;;;;;;6153903;28;83491;-66
2021/05/30 10:07:00;;;;;;;36.65;13.35;;;22.50;56.40;;;;;;6175486;28;84512;-65
2021/05/30 10:10:00;;;;;;;34.10;12.35;;;22.50;56.30;;;;;;6170045;28;83027;-65
2021/05/30 10:13:02;;;;;;;25.60;10.93;;;22.60;56.50;;;;;;6156652;28;83263;-65
2021/05/30 10:16:02;;;;;;;22.80;10.65;;;22.60;56.40;;;;;;6161716;28;85989;-65
2021/05/30 10:19:03;;;;;;;25.17;10.82;;;22.60;56.40;;;;;;6171232;28;87430;-69
2021/05/30 10:22:03;;;;;;;24.67;10.20;;;22.60;56.10;;;;;;6176411;28;83549;-65
2021/05/30 10:25:04;;;;;;;30.33;10.18;;;22.60;56.00;;;;;;6166215;28;83012;-64
2021/05/30 10:28:04;;;;;;;24.25;10.40;;;22.70;56.10;;;;;;6154914;28;83642;-65
2021/05/30 10:31:05;;;;;;;14.57;7.32;;;22.60;55.50;;;;;;6156104;28;84402;-65
2021/05/30 10:34:05;;;;;;;20.70;8.18;;;22.60;55.20;;;;;;6166437;28;84485;-63
2021/05/30 10:37:06;;;;;;;14.75;7.55;;;22.60;54.60;;;;;;6164586;28;81338;-62
2021/05/30 10:40:06;;;;;;;17.63;7.18;;;22.60;54.90;;;;;;6177299;28;81623;-64
2021/05/30 10:43:07;;;;;;;16.13;8.05;;;22.60;54.40;;;;;;6177186;28;80654;-64
2021/05/30 10:46:07;;;;;;;15.60;6.82;;;22.60;54.30;;;;;;6167182;28;80909;-65
2021/05/30 10:49:08;;;;;;;11.60;6.00;;;22.60;54.50;;;;;;6172545;28;84862;-65
2021/05/30 10:52:08;;;;;;;16.15;6.68;;;22.60;54.10;;;;;;6159993;28;81279;-65
2021/05/30 10:55:09;;;;;;;13.57;5.90;;;22.60;54.10;;;;;;6177555;28;83265;-65
2021/05/30 10:58:09;;;;;;;13.90;6.05;;;22.60;54.10;;;;;;6170241;28;80796;-65
2021/05/30 11:01:10;;;;;;;13.13;5.25;;;22.60;54.10;;;;;;6165077;28;80632;-65
2021/05/30 11:04:10;;;;;;;14.57;6.00;;;22.60;54.00;;;;;;6180469;28;80788;-65
2021/05/30 11:07:12;;;;;;;15.25;5.65;;;22.60;53.50;;;;;;6180088;28;81955;-65
2021/05/30 11:10:13;;;;;;;11.57;5.25;;;22.60;53.70;;;;;;6169318;28;80506;-66
2021/05/30 11:13:14;;;;;;;11.05;5.07;;;22.60;53.30;;;;;;6167157;28;80660;-66
2021/05/30 11:16:14;;;;;;;11.00;5.05;;;22.60;53.30;;;;;;6180494;28;83849;-67
2021/05/30 11:19:15;;;;;;;22.65;6.53;;;22.60;53.10;;;;;;6165615;28;80392;-66
2021/05/30 11:22:15;;;;;;;14.93;4.80;;;22.60;53.20;;;;;;6168002;28;81222;-66
2021/05/30 11:25:16;;;;;;;10.80;4.97;;;22.60;53.20;;;;;;6154941;28;81930;-64
2021/05/30 11:28:16;;;;;;;8.10;4.15;;;22.60;53.00;;;;;;6156613;28;80724;-65
2021/05/30 11:31:18;;;;;;;11.30;4.57;;;22.70;52.30;;;;;;6150349;28;80211;-65
2021/05/30 11:34:19;;;;;;;7.57;3.95;;;22.60;52.50;;;;;;6154967;28;82042;-65
2021/05/30 11:37:19;;;;;;;8.43;4.03;;;22.70;52.60;;;;;;6160370;28;80664;-63
2021/05/30 11:40:22;;;;;;;12.50;4.78;;;22.60;52.50;;;;;;6150542;28;81669;-65
2021/05/30 11:43:22;;;;;;;6.07;3.83;;;22.60;52.50;;;;;;6173913;28;80484;-65
2021/05/30 11:46:23;;;;;;;6.25;4.15;;;22.60;51.80;;;;;;6175048;28;82900;-65
2021/05/30 11:49:24;;;;;;;7.25;4.00;;;22.60;51.50;;;;;;6186062;28;81047;-66
2021/05/30 11:52:25;;;;;;;6.03;3.75;;;22.60;51.30;;;;;;6168975;28;81012;-66
2021/05/30 11:55:25;;;;;;;6.90;3.42;;;22.60;51.30;;;;;;6164890;28;80930;-66
2021/05/30 11:58:26;;;;;;;9.02;3.53;;;22.60;51.40;;;;;;6153435;28;81266;-66
2021/05/30 12:01:26;;;;;;;5.40;3.00;;;22.60;51.10;;;;;;6160713;28;80518;-65
2021/05/30 12:04:27;;;;;;;5.22;3.35;;;22.70;50.70;;;;;;6163764;28;80959;-65
2021/05/30 12:07:27;;;;;;;4.70;3.22;;;22.70;51.10;;;;;;6159153;28;80469;-66
2021/05/30 12:10:28;;;;;;;4.97;3.17;;;22.70;50.60;;;;;;6155773;27;81502;-66
2021/05/30 12:13:28;;;;;;;7.13;3.05;;;22.70;50.50;;;;;;6162669;28;80720;-67
2021/05/30 12:16:29;;;;;;;9.73;3.85;;;22.70;50.50;;;;;;6178896;28;80614;-66
2021/05/30 12:19:29;;;;;;;6.22;2.97;;;22.70;50.30;;;;;;6180447;28;80913;-66
2021/05/30 12:22:30;;;;;;;6.88;3.70;;;22.70;50.40;;;;;;6163877;28;81646;-67
2021/05/30 12:25:31;;;;;;;5.80;3.70;;;22.70;50.60;;;;;;6148599;28;81474;-67
2021/05/30 12:28:31;;;;;;;6.57;2.90;;;22.70;50.40;;;;;;6167309;28;81734;-67
2021/05/30 12:31:32;;;;;;;4.80;3.10;;;22.70;50.50;;;;;;6176995;28;81179;-66
2021/05/30 12:34:32;;;;;;;4.85;2.72;;;22.70;50.30;;;;;;6164076;28;80402;-66
2021/05/30 12:37:33;;;;;;;6.22;2.83;;;22.70;50.20;;;;;;6154140;28;83020;-67
2021/05/30 12:40:33;;;;;;;5.07;3.03;;;22.70;50.30;;;;;;6157238;28;81089;-66
2021/05/30 12:43:34;;;;;;;5.45;3.28;;;22.70;50.00;;;;;;6155550;28;81424;-65
2021/05/30 12:46:35;;;;;;;6.05;3.03;;;22.70;50.60;;;;;;6180072;28;80757;-66
2021/05/30 12:49:35;;;;;;;3.83;2.60;;;22.70;50.10;;;;;;6158280;28;81018;-67
2021/05/30 12:52:36;;;;;;;5.97;2.58;;;22.70;50.10;;;;;;6151866;28;80409;-66
2021/05/30 12:55:37;;;;;;;6.97;2.67;;;22.70;50.50;;;;;;6161383;28;80496;-65
2021/05/30 12:58:37;;;;;;;4.15;2.50;;;22.70;50.20;;;;;;6163527;28;80674;-65
2021/05/30 13:01:38;;;;;;;5.88;2.95;;;22.70;50.80;;;;;;6155841;28;83834;-65
2021/05/30 13:04:39;;;;;;;4.93;2.75;;;22.70;50.10;;;;;;6163756;28;80862;-66
2021/05/30 13:07:39;;;;;;;4.28;2.53;;;22.70;50.10;;;;;;6181022;28;80801;-67
2021/05/30 13:10:40;;;;;;;2.42;2.05;;;22.70;50.40;;;;;;6182937;28;80747;-66
2021/05/30 13:13:41;;;;;;;4.05;1.90;;;22.70;50.30;;;;;;6182594;28;80594;-66
2021/05/30 13:16:41;;;;;;;3.22;1.92;;;22.70;50.00;;;;;;6182396;28;80359;-66
2021/05/30 13:19:42;;;;;;;2.58;1.90;;;22.70;50.00;;;;;;6182907;28;80345;-65
2021/05/30 13:22:42;;;;;;;2.60;2.00;;;22.60;50.40;;;;;;6189990;28;81555;-66
2021/05/30 13:25:43;;;;;;;2.60;1.92;;;22.70;50.20;;;;;;6181166;28;81263;-66
2021/05/30 13:28:46;;;;;;;2.10;1.70;;;22.60;50.70;;;;;;6168319;28;82235;-67
2021/05/30 13:31:46;;;;;;;3.15;1.88;;;22.60;49.80;;;;;;6160697;28;81194;-65
2021/05/30 13:34:47;;;;;;;2.15;1.70;;;22.70;50.30;;;;;;6180667;28;80897;-65
2021/05/30 13:37:47;;;;;;;4.18;2.00;;;22.60;49.70;;;;;;6180136;28;80556;-64
2021/05/30 13:40:48;;;;;;;2.00;1.40;;;22.60;49.50;;;;;;6166008;28;82153;-66
2021/05/30 13:43:48;;;;;;;109.65;34.95;;;22.70;49.50;;;;;;6172536;28;80928;-65
2021/05/30 13:46:49;;;;;;;140.73;46.88;;;22.70;49.20;;;;;;6163040;28;84007;-67
2021/05/30 13:49:53;;;;;;;289.33;100.97;;;22.70;49.00;;;;;;6153892;28;83273;-65
2021/05/30 13:52:54;;;;;;;364.70;122.22;;;22.70;49.00;;;;;;6161935;28;85735;-65
2021/05/30 13:55:55;;;;;;;304.25;105.25;;;22.70;49.50;;;;;;6172437;28;86820;-65
2021/05/30 13:58:56;;;;;;;261.08;91.75;;;22.70;49.40;;;;;;6168558;28;85994;-63
2021/05/30 14:01:57;;;;;;;266.05;91.30;;;22.70;49.50;;;;;;6178585;28;85348;-63
2021/05/30 14:04:57;;;;;;;242.35;78.53;;;22.70;49.40;;;;;;6177488;28;83178;-63
2021/05/30 14:07:58;;;;;;;208.80;73.63;;;22.70;49.40;;;;;;6159203;28;89944;-63
2021/05/30 14:10:58;;;;;;;203.20;69.32;;;22.70;49.60;;;;;;6171648;28;83304;-63
2021/05/30 14:13:59;;;;;;;202.02;69.13;;;22.70;50.30;;;;;;6163744;28;83274;-63
2021/05/30 14:16:59;;;;;;;165.23;59.92;;;22.70;50.60;;;;;;6171879;28;83147;-62
2021/05/30 14:20:00;;;;;;;176.10;61.90;;;22.70;50.60;;;;;;6176764;28;83352;-63
2021/05/30 14:23:00;;;;;;;153.82;56.85;;;22.70;51.10;;;;;;6161427;28;82896;-63
2021/05/30 14:26:01;;;;;;;144.45;51.28;;;22.70;51.10;;;;;;6171761;28;83217;-63
2021/05/30 14:29:01;;;;;;;148.27;55.05;;;22.70;51.30;;;;;;6178530;28;83043;-64
2021/05/30 14:32:02;;;;;;;144.88;49.83;;;22.80;51.10;;;;;;6159098;28;84186;-64
2021/05/30 14:35:04;;;;;;;128.07;46.70;;;22.80;51.10;;;;;;6172483;28;83273;-64
2021/05/30 14:38:05;;;;;;;121.45;45.58;;;22.80;51.00;;;;;;6176713;28;83239;-64
2021/05/30 14:41:06;;;;;;;120.18;43.17;;;22.70;50.90;;;;;;6168758;28;85689;-64
2021/05/30 14:44:07;;;;;;;117.78;43.45;;;22.70;51.50;;;;;;6158095;28;83079;-64
2021/05/30 14:47:07;;;;;;;105.70;40.25;;;22.60;51.20;;;;;;6163120;28;83736;-64
2021/05/30 14:50:08;;;;;;;104.60;38.03;;;22.60;51.30;;;;;;6153821;28;82889;-63
2021/05/30 14:53:08;;;;;;;98.22;37.97;;;22.60;51.50;;;;;;6171852;28;83555;-63
2021/05/30 14:56:09;;;;;;;94.75;36.38;;;22.60;51.50;;;;;;6153245;28;83277;-63
2021/05/30 14:59:09;;;;;;;90.22;34.05;;;22.60;51.90;;;;;;6144625;28;83584;-63
2021/05/30 15:02:10;;;;;;;82.25;30.25;;;22.60;51.50;;;;;;6182581;28;86429;-64
2021/05/30 15:05:10;;;;;;;76.70;31.35;;;22.70;51.50;;;;;;6173832;28;83120;-63
2021/05/30 15:08:11;;;;;;;87.20;31.38;;;22.70;51.20;;;;;;6147686;28;84133;-63
2021/05/30 15:11:12;;;;;;;77.20;27.70;;;22.80;51.40;;;;;;6156170;28;83489;-64
2021/05/30 15:14:12;;;;;;;73.15;26.25;;;22.70;51.50;;;;;;6165395;28;83278;-64
2021/05/30 15:17:13;;;;;;;77.45;27.83;;;22.70;51.40;;;;;;6171444;28;85984;-63
2021/05/30 15:20:13;;;;;;;62.95;26.08;;;22.70;51.60;;;;;;6171019;28;85661;-63
2021/05/30 15:23:14;;;;;;;64.95;23.88;;;22.70;50.80;;;;;;6173365;28;83225;-64
2021/05/30 15:26:14;;;;;;;61.10;22.85;;;22.70;50.40;;;;;;6153450;28;83207;-64
2021/05/30 15:29:15;;;;;;;54.83;21.63;;;22.70;50.10;;;;;;6170380;28;85904;-63
2021/05/30 15:32:15;;;;;;;63.03;22.35;;;22.70;50.00;;;;;;6176606;28;83078;-63